Página principal
METAR-TAF:

METAR-TAF

Aeroportos :

Aeroporto de Copenhaga

Copenhaga, Dinamarca

latitude: 55-37N, longitude: 012-39E, altura: 5 m

Observação actual do tempo

O boletim foi feito há 15 minutos, às 22:50 UTC
Vento 13 kt de su-sudeste
Temperatura 8°C
Humidade 93%
Pressão 1018 hPa
Visibilidade: 4000 m
Nuvens fragmentadasa uma altura de 1200 ft
Nuvens fragmentadasa uma altura de 1500 ft
neblina

METAR: EKCH 202250Z 15013KT 4000 BR BKN012 BKN015 08/07 Q1018 TEMPO 6000 BKN015

Hora: 00:05 (23:05 UTC)

Previsão

O boletim foi feito há 38 minutos, às 22:27 UTC
Previsão válida de 20 às 22 UTC a 21 às 18 UTC
Vento 12 kt de es-sudeste
Visibilidade: 8000 m
Nuvens dispersasa uma altura de 800 ft
Nuvens fragmentadasa uma altura de 1500 ft
Temporariamente
de 20 às 22 UTC a 21 às 12 UTC
Visibilidade: 3000 m
Nuvens fragmentadasa uma altura de 600 ft
chuva fraca, chuvisco, neblina

TAF: EKCH 202227Z 2022/2118 12012KT 8000 SCT008 BKN015 TEMPO 2022/2112 3000 -RADZ BR BKN006

Observações e previsões do tempo de mais de 4000 aeroportos (mensagens METAR e TAF).

As estações disponíveis são os pontos amarelos e vermelhos sobre o mapa.

Mova o rato sobre o mapa para ver o nome da estação.

Depois clique no ponto para visualizar as observações e previsões meteorológicas.

Para alterar o mapa : clique nos botões verdes com uma cruz preta para aumentar o zoom; no botão verde com uma pitada de zoom; ou nas setas verdes para mapas adjacentes.


METAR-TAF: